17°C Temp
11°C Dewpoint
68% Humidity
Temperature
10 KM/H
6 MPH
5 KTS
200°
South South
West

Wind Speed
Partly Cloudy
Conditions
Pressure 1012.52 (hPa) - 29.9 (in)
Visibility 9.9 (mi) - 16.0 (km)

Current Conditions
KSJC
Location 9(km)
Metar :KSJC 231253Z 20005KT 10SM FEW014 BKN024 OVC027 17/11 A2990 RMK AO2 SLP123 T01670106
Wed 23rd June 13:53 pm

Airport
  Metar Aviation API Data Provided by https://www.checkwx.com/ PHP scripts by weather34.com ©2021